createdAt,value
2019-01-30T00:01:04.829Z,95.21
2019-01-30T00:03:42.810Z,95.32
2019-01-30T00:06:20.080Z,95.61
2019-01-30T00:08:53.985Z,96.00
2019-01-30T00:11:28.469Z,96.38
2019-01-30T00:14:02.561Z,96.40
2019-01-30T00:16:38.333Z,96.67
2019-01-30T00:19:12.623Z,96.85
2019-01-30T00:21:47.998Z,97.17
2019-01-30T00:24:27.375Z,97.01
2019-01-30T00:26:59.258Z,97.37
2019-01-30T00:29:38.213Z,97.55
2019-01-30T00:32:15.188Z,97.57
2019-01-30T00:34:52.720Z,97.97
2019-01-30T00:37:24.809Z,98.28
2019-01-30T00:39:56.865Z,98.35
2019-01-30T00:42:29.035Z,98.60
2019-01-30T00:45:02.952Z,98.67
2019-01-30T00:47:36.969Z,98.57
2019-01-30T00:50:42.093Z,98.57
2019-01-30T00:53:23.169Z,98.66
2019-01-30T00:56:01.127Z,98.91
2019-01-30T00:58:35.081Z,99.10
2019-01-30T01:01:11.503Z,98.88
2019-01-30T01:03:43.859Z,98.42
2019-01-30T01:06:24.449Z,98.15
2019-01-30T01:09:02.590Z,98.14
2019-01-30T01:11:43.054Z,98.15
2019-01-30T01:14:21.019Z,98.04
2019-01-30T01:16:53.173Z,97.94
2019-01-30T01:19:27.041Z,97.80
2019-01-30T01:22:05.198Z,97.68
2019-01-30T01:24:41.304Z,97.49
2019-01-30T01:27:23.547Z,97.49
2019-01-30T01:29:58.745Z,97.43
2019-01-30T01:32:30.778Z,97.47
2019-01-30T01:35:16.889Z,97.48
2019-01-30T01:38:05.098Z,97.54
2019-01-30T01:40:45.650Z,97.63
2019-01-30T01:43:21.317Z,97.80
2019-01-30T01:45:54.177Z,97.68
2019-01-30T01:48:31.417Z,97.85
2019-01-30T01:51:09.363Z,97.83
2019-01-30T01:53:45.271Z,97.85
2019-01-30T01:56:19.525Z,97.90
2019-01-30T01:58:55.025Z,98.16
2019-01-30T02:01:36.858Z,98.17
2019-01-30T02:04:18.261Z,98.37
2019-01-30T02:06:53.752Z,98.38
2019-01-30T02:09:27.620Z,98.43
2019-01-30T02:12:02.552Z,98.50
2019-01-30T02:14:40.091Z,98.44
2019-01-30T02:17:23.492Z,98.49
2019-01-30T02:20:02.728Z,98.50
2019-01-30T02:22:42.560Z,98.51
2019-01-30T02:25:20.492Z,98.58
2019-01-30T02:27:56.125Z,98.52
2019-01-30T02:30:47.025Z,98.48
2019-01-30T02:33:16.715Z,98.42
2019-01-30T02:35:56.943Z,98.36
2019-01-30T02:38:38.538Z,98.38
2019-01-30T02:41:13.259Z,98.43
2019-01-30T02:43:48.052Z,98.58
2019-01-30T02:46:30.277Z,98.63
2019-01-30T02:49:05.148Z,98.69
2019-01-30T02:51:38.157Z,98.61
2019-01-30T02:54:12.644Z,98.68
2019-01-30T02:56:50.357Z,98.55
2019-01-30T02:59:23.857Z,98.52
2019-01-30T03:02:25.474Z,98.48
2019-01-30T03:05:12.449Z,98.58
2019-01-30T03:07:56.058Z,98.41
2019-01-30T03:10:35.592Z,98.25
2019-01-30T03:13:08.573Z,98.13
2019-01-30T03:15:41.468Z,98.17
2019-01-30T03:18:29.323Z,98.22
2019-01-30T03:21:02.827Z,98.44
2019-01-30T03:23:44.549Z,98.52
2019-01-30T03:26:14.784Z,98.62
2019-01-30T03:29:02.665Z,98.77
2019-01-30T03:31:42.675Z,98.95
2019-01-30T03:34:23.804Z,98.92
2019-01-30T03:36:58.789Z,98.82
2019-01-30T03:39:33.170Z,98.69
2019-01-30T03:42:05.159Z,98.74
2019-01-30T03:44:37.041Z,98.81
2019-01-30T03:47:17.803Z,98.93
2019-01-30T03:49:53.761Z,98.89
2019-01-30T03:52:28.474Z,98.95
2019-01-30T03:55:01.116Z,99.00
2019-01-30T03:57:37.088Z,98.97
2019-01-30T04:00:19.420Z,99.18
2019-01-30T04:02:58.094Z,99.15
2019-01-30T04:05:35.711Z,99.21
2019-01-30T04:08:08.741Z,99.27
2019-01-30T04:10:48.697Z,99.47
2019-01-30T04:13:31.192Z,99.64
2019-01-30T04:16:10.039Z,99.69
2019-01-30T04:18:42.247Z,99.68
2019-01-30T04:21:42.251Z,99.59
2019-01-30T04:24:15.671Z,99.57
2019-01-30T04:26:47.473Z,99.53
2019-01-30T04:29:19.275Z,99.53
2019-01-30T04:31:51.121Z,99.62
2019-01-30T04:34:22.967Z,99.65
2019-01-30T04:36:54.908Z,99.43
2019-01-30T04:39:26.840Z,99.01
2019-01-30T04:41:58.776Z,98.73
2019-01-30T04:44:30.542Z,98.62
2019-01-30T04:47:03.451Z,98.58
2019-01-30T04:49:35.351Z,98.51
2019-01-30T04:52:07.292Z,98.39
2019-01-30T04:54:40.273Z,98.53
2019-01-30T04:57:12.047Z,98.65
2019-01-30T04:59:44.455Z,98.69
2019-01-30T05:02:16.311Z,98.73
2019-01-30T05:04:48.096Z,98.82
2019-01-30T05:07:20.113Z,98.69
2019-01-30T05:09:52.035Z,98.37
2019-01-30T05:12:23.887Z,97.92
2019-01-30T05:14:55.715Z,97.58
2019-01-30T05:17:27.532Z,97.24
2019-01-30T05:19:59.371Z,97.09
2019-01-30T05:22:31.184Z,96.89
2019-01-30T05:25:03.119Z,96.95
2019-01-30T05:27:34.956Z,97.17
2019-01-30T05:30:11.614Z,97.21
2019-01-30T05:32:43.503Z,97.42
2019-01-30T05:35:15.612Z,97.39
2019-01-30T05:37:47.566Z,97.40
2019-01-30T05:40:19.932Z,97.57
2019-01-30T05:42:51.864Z,97.82
2019-01-30T05:45:23.958Z,97.98
2019-01-30T05:47:55.854Z,98.21
2019-01-30T05:50:27.689Z,98.43
2019-01-30T05:52:59.641Z,98.55
2019-01-30T05:55:31.584Z,98.62
2019-01-30T05:58:03.536Z,98.48
2019-01-30T06:00:42.014Z,99.00
2019-01-30T06:03:13.871Z,99.17
2019-01-30T06:05:45.667Z,98.82
2019-01-30T06:08:17.458Z,98.51
2019-01-30T06:10:50.830Z,98.35
2019-01-30T06:13:22.649Z,98.03
2019-01-30T06:15:54.616Z,97.72
2019-01-30T06:18:26.442Z,97.83
2019-01-30T06:20:59.542Z,97.72
2019-01-30T06:23:31.502Z,97.67
2019-01-30T06:26:03.395Z,97.84
2019-01-30T06:28:35.321Z,98.08
2019-01-30T06:31:07.587Z,98.41
2019-01-30T06:33:39.408Z,98.57
2019-01-30T06:36:11.385Z,98.14
2019-01-30T06:38:43.202Z,97.99
2019-01-30T06:41:15.009Z,97.92
2019-01-30T06:43:46.875Z,98.22
2019-01-30T06:46:18.687Z,98.44
2019-01-30T06:48:50.474Z,98.39
2019-01-30T06:51:22.306Z,98.36
2019-01-30T06:53:54.193Z,98.11
2019-01-30T06:56:26.172Z,97.88
2019-01-30T06:59:00.738Z,97.47
2019-01-30T07:01:33.828Z,97.25
2019-01-30T07:04:05.670Z,96.84
2019-01-30T07:06:37.466Z,96.69
2019-01-30T07:09:12.361Z,96.19
2019-01-30T07:11:44.153Z,95.98
2019-01-30T07:14:16.128Z,95.53
2019-01-30T07:16:48.075Z,95.48
2019-01-30T07:19:19.998Z,95.26
2019-01-30T07:21:51.814Z,95.08
2019-01-30T07:24:23.631Z,95.03
2019-01-30T07:26:55.826Z,94.63
2019-01-30T07:29:27.729Z,94.30
2019-01-30T07:31:59.618Z,94.08
2019-01-30T07:34:31.586Z,94.12
2019-01-30T07:37:03.412Z,94.08
2019-01-30T07:39:35.274Z,93.79
2019-01-30T07:42:07.355Z,93.73
2019-01-30T07:44:39.265Z,93.66
2019-01-30T07:47:11.145Z,93.87
2019-01-30T07:49:42.964Z,93.70
2019-01-30T07:52:14.789Z,92.99
2019-01-30T07:54:46.631Z,92.49
2019-01-30T07:57:18.551Z,92.14
2019-01-30T07:59:50.559Z,91.97
2019-01-30T08:02:23.450Z,91.88
2019-01-30T08:04:55.373Z,91.42
2019-01-30T08:07:27.793Z,90.90
2019-01-30T08:09:59.811Z,90.76
2019-01-30T08:12:31.724Z,90.38
2019-01-30T08:15:03.873Z,90.12
2019-01-30T08:17:35.867Z,89.73
2019-01-30T08:20:10.821Z,89.43
2019-01-30T08:22:43.201Z,89.09
2019-01-30T08:25:18.609Z,88.63
2019-01-30T08:27:51.005Z,88.24
2019-01-30T08:30:31.438Z,87.99
2019-01-30T08:33:05.672Z,87.83
2019-01-30T08:35:37.598Z,87.62
2019-01-30T08:38:09.665Z,87.73
2019-01-30T08:40:41.586Z,87.42
2019-01-30T08:43:14.687Z,86.81
2019-01-30T08:45:46.781Z,86.61
2019-01-30T08:48:18.890Z,86.09
2019-01-30T08:50:50.772Z,85.55
2019-01-30T08:53:22.843Z,85.30
2019-01-30T08:55:54.685Z,85.04
2019-01-30T08:58:26.819Z,84.97
2019-01-30T09:00:58.874Z,84.24
2019-01-30T09:03:31.094Z,83.88
2019-01-30T09:06:04.921Z,84.15
2019-01-30T09:08:37.478Z,83.21
2019-01-30T09:11:09.827Z,82.91
2019-01-30T09:13:41.925Z,82.70
2019-01-30T09:16:13.947Z,82.70
2019-01-30T09:18:46.203Z,82.48
2019-01-30T09:21:18.329Z,81.81
2019-01-30T09:23:50.554Z,81.95
2019-01-30T09:26:22.633Z,81.95
2019-01-30T09:28:55.873Z,82.13
2019-01-30T09:31:28.237Z,81.93
2019-01-30T09:34:00.107Z,81.52
2019-01-30T09:36:32.012Z,81.07
2019-01-30T09:39:05.247Z,80.68
2019-01-30T09:41:37.575Z,80.73
2019-01-30T09:44:10.031Z,80.45
2019-01-30T09:46:42.176Z,80.47
2019-01-30T09:49:13.941Z,79.99
2019-01-30T09:51:46.384Z,79.84
2019-01-30T09:54:18.407Z,79.10
2019-01-30T09:56:50.490Z,79.13
2019-01-30T09:59:22.885Z,77.94
2019-01-30T10:01:55.119Z,78.29
2019-01-30T10:04:27.587Z,77.56
2019-01-30T10:06:59.485Z,77.18
2019-01-30T10:09:31.318Z,76.97
2019-01-30T10:12:03.209Z,77.53
2019-01-30T10:14:35.835Z,76.46
2019-01-30T10:17:11.144Z,75.95
2019-01-30T10:19:43.897Z,76.21
2019-01-30T10:22:16.206Z,75.76
2019-01-30T10:24:50.493Z,74.79
2019-01-30T10:27:22.358Z,75.01
2019-01-30T10:29:54.470Z,75.00
2019-01-30T10:32:29.764Z,74.07
2019-01-30T10:35:03.968Z,73.85
2019-01-30T10:37:37.472Z,73.36
2019-01-30T10:40:13.352Z,73.25
2019-01-30T10:42:45.592Z,72.52
2019-01-30T10:45:17.616Z,72.05
2019-01-30T10:47:49.493Z,72.67
2019-01-30T10:50:24.716Z,72.44
2019-01-30T10:52:56.606Z,71.77
2019-01-30T10:55:30.778Z,71.84
2019-01-30T10:58:06.391Z,70.99
2019-01-30T11:00:48.364Z,70.02
2019-01-30T11:03:20.811Z,70.05
2019-01-30T11:05:55.721Z,70.05
2019-01-30T11:08:30.461Z,70.39
2019-01-30T11:11:08.381Z,69.61
2019-01-30T11:13:46.659Z,70.40
2019-01-30T11:16:19.104Z,70.70
2019-01-30T11:18:51.219Z,70.61
2019-01-30T11:21:28.074Z,70.30
2019-01-30T11:24:06.152Z,69.64
2019-01-30T11:26:41.289Z,70.00
2019-01-30T11:29:13.483Z,69.80
2019-01-30T11:31:46.657Z,69.97
2019-01-30T11:34:25.669Z,69.46
2019-01-30T11:37:04.241Z,69.44
2019-01-30T11:39:38.745Z,68.79
2019-01-30T11:42:10.811Z,68.84
2019-01-30T11:44:45.587Z,68.80
2019-01-30T11:47:17.543Z,68.84
2019-01-30T11:49:49.381Z,68.16
2019-01-30T11:52:24.054Z,68.42
2019-01-30T11:54:57.824Z,68.44
2019-01-30T11:57:29.739Z,68.24
2019-01-30T12:00:06.351Z,68.54
2019-01-30T12:02:47.740Z,68.04
2019-01-30T12:05:14.888Z,68.09
2019-01-30T12:07:50.054Z,67.98
2019-01-30T12:10:25.137Z,68.13
2019-01-30T12:12:57.953Z,67.64
2019-01-30T12:15:30.624Z,67.77
2019-01-30T12:18:05.021Z,67.28
2019-01-30T12:20:39.479Z,67.20
2019-01-30T12:23:11.595Z,67.47
2019-01-30T12:25:46.165Z,67.64
2019-01-30T12:28:22.182Z,66.98
2019-01-30T12:30:54.189Z,67.07
2019-01-30T12:33:27.569Z,66.40
2019-01-30T12:35:59.458Z,66.25
2019-01-30T12:38:31.376Z,66.47
2019-01-30T12:41:03.261Z,65.73
2019-01-30T12:43:35.057Z,65.82
2019-01-30T12:46:06.969Z,66.33
2019-01-30T12:48:38.755Z,65.63
2019-01-30T12:51:10.597Z,65.98
2019-01-30T12:53:42.377Z,65.95
2019-01-30T12:56:14.252Z,65.48
2019-01-30T12:58:46.227Z,65.45
2019-01-30T13:01:19.352Z,65.60
2019-01-30T13:03:51.199Z,65.56
2019-01-30T13:06:27.904Z,65.12
2019-01-30T13:09:10.140Z,64.35
2019-01-30T13:11:42.023Z,64.01
2019-01-30T13:14:22.945Z,63.56
2019-01-30T13:16:56.648Z,63.77
2019-01-30T13:19:30.044Z,63.67
2019-01-30T13:22:03.623Z,63.59
2019-01-30T13:24:42.795Z,62.83
2019-01-30T13:27:17.980Z,62.61
2019-01-30T13:29:49.772Z,63.25
2019-01-30T13:32:23.764Z,61.98
2019-01-30T13:34:55.562Z,63.08
2019-01-30T13:37:27.410Z,62.73
2019-01-30T13:40:05.080Z,62.47
2019-01-30T13:42:37.062Z,61.67
2019-01-30T13:45:15.951Z,61.63
2019-01-30T13:47:48.279Z,61.99
2019-01-30T13:50:22.827Z,60.87
2019-01-30T13:52:54.751Z,60.90
2019-01-30T13:55:27.239Z,61.14
2019-01-30T13:57:59.397Z,60.93
2019-01-30T14:00:37.480Z,61.46
2019-01-30T14:03:10.044Z,60.71
2019-01-30T14:05:41.873Z,61.05
2019-01-30T14:08:14.822Z,61.41
2019-01-30T14:10:46.734Z,61.05
2019-01-30T14:13:18.640Z,61.59
2019-01-30T14:15:50.463Z,61.85
2019-01-30T14:18:22.848Z,62.25
2019-01-30T14:20:54.658Z,62.55
2019-01-30T14:23:28.737Z,61.93
2019-01-30T14:26:00.541Z,62.39
2019-01-30T14:28:32.401Z,62.35
2019-01-30T14:31:04.698Z,63.04
2019-01-30T14:33:36.680Z,62.89
2019-01-30T14:36:08.564Z,62.82
2019-01-30T14:38:40.393Z,62.99
2019-01-30T14:41:13.311Z,63.26
2019-01-30T14:43:45.225Z,63.09
2019-01-30T14:46:17.115Z,63.05
2019-01-30T14:48:48.928Z,63.09
2019-01-30T14:51:20.798Z,63.59
2019-01-30T14:53:54.820Z,64.07
2019-01-30T14:56:28.491Z,64.46
2019-01-30T14:59:00.462Z,64.92
2019-01-30T15:01:32.785Z,65.16
2019-01-30T15:04:09.881Z,65.50
2019-01-30T15:06:38.566Z,66.12
2019-01-30T15:09:11.658Z,66.58
2019-01-30T15:11:45.716Z,67.37
2019-01-30T15:14:17.841Z,67.68
2019-01-30T15:16:49.698Z,67.87
2019-01-30T15:19:21.615Z,68.32
2019-01-30T15:21:53.466Z,68.94
2019-01-30T15:24:25.381Z,69.16
2019-01-30T15:26:57.503Z,69.70
2019-01-30T15:29:30.383Z,70.04
2019-01-30T15:32:02.224Z,70.25
2019-01-30T15:34:34.195Z,70.62
2019-01-30T15:37:06.087Z,71.00
2019-01-30T15:39:37.987Z,70.87
2019-01-30T15:42:09.978Z,71.13
2019-01-30T15:44:41.906Z,71.45
2019-01-30T15:47:13.938Z,71.55
2019-01-30T15:49:45.908Z,71.83
2019-01-30T15:52:17.869Z,72.07
2019-01-30T15:54:49.822Z,72.20
2019-01-30T15:57:21.728Z,72.45
2019-01-30T16:00:02.309Z,72.70
2019-01-30T16:02:34.667Z,72.75
2019-01-30T16:05:10.285Z,73.18
2019-01-30T16:07:44.788Z,73.42
2019-01-30T16:11:03.435Z,73.63
2019-01-30T17:25:31.105Z,76.28
2019-01-30T17:28:07.326Z,76.33
2019-01-30T17:30:55.443Z,76.51
2019-01-30T17:33:27.435Z,77.26
2019-01-30T17:35:59.308Z,77.55
2019-01-30T17:38:37.176Z,77.64
2019-01-30T17:41:09.757Z,77.65
2019-01-30T17:43:44.587Z,77.55
2019-01-30T17:46:22.347Z,77.45
2019-01-30T17:48:54.522Z,77.59
2019-01-30T17:51:26.414Z,77.37
2019-01-30T17:53:58.314Z,77.46
2019-01-30T17:56:30.301Z,77.61
2019-01-30T17:59:02.183Z,78.07
2019-01-30T18:01:34.194Z,78.05
2019-01-30T18:04:09.041Z,78.10
2019-01-30T18:06:41.077Z,78.11
2019-01-30T18:09:13.418Z,78.15
2019-01-30T18:11:45.569Z,78.10
2019-01-30T18:14:17.608Z,78.33
2019-01-30T18:16:50.513Z,78.57
2019-01-30T18:19:22.416Z,78.34
2019-01-30T18:21:55.972Z,78.54
2019-01-30T18:24:29.756Z,78.68
2019-01-30T18:27:03.749Z,78.69
2019-01-30T18:29:38.790Z,78.85
2019-01-30T18:32:12.404Z,78.96
2019-01-30T18:34:46.556Z,79.08
2019-01-30T18:37:23.092Z,79.26
2019-01-30T18:40:18.028Z,79.38
2019-01-30T18:43:34.258Z,79.35
2019-01-30T18:46:07.458Z,79.79
2019-01-30T18:48:39.444Z,80.30
2019-01-30T18:51:12.970Z,80.52
2019-01-30T18:53:46.492Z,80.92
2019-01-30T19:01:19.866Z,81.53
2019-01-30T19:03:52.082Z,82.07
2019-01-30T19:06:24.179Z,82.34
2019-01-30T19:08:56.237Z,81.72
2019-01-30T19:11:28.270Z,81.62
2019-01-30T19:14:00.160Z,81.68
2019-01-30T19:16:32.081Z,81.87
2019-01-30T19:19:07.956Z,81.89
2019-01-30T19:21:39.984Z,81.64
2019-01-30T19:24:11.965Z,81.86
2019-01-30T19:26:44.065Z,82.15
2019-01-30T19:29:16.107Z,82.36
2019-01-30T19:31:48.164Z,82.66
2019-01-30T19:34:20.272Z,82.92
2019-01-30T19:37:02.977Z,83.11
2019-01-30T19:39:25.909Z,83.37
2019-01-30T19:41:57.835Z,83.17
2019-01-30T19:44:29.893Z,83.19
2019-01-30T19:47:01.874Z,83.48
2019-01-30T19:49:33.959Z,83.62
2019-01-30T19:52:07.958Z,83.75
2019-01-30T19:54:39.999Z,83.58
2019-01-30T19:57:12.032Z,83.62
2019-01-30T19:59:44.170Z,83.71
2019-01-30T20:02:16.324Z,83.99
2019-01-30T20:04:49.993Z,84.15
2019-01-30T20:07:22.083Z,84.14
2019-01-30T20:09:55.251Z,84.53
2019-01-30T20:12:28.122Z,84.45
2019-01-30T20:15:00.303Z,84.78
2019-01-30T20:17:32.428Z,84.65
2019-01-30T20:20:06.057Z,84.75
2019-01-30T20:22:38.072Z,84.76
2019-01-30T20:25:23.576Z,84.86
2019-01-30T20:27:56.852Z,84.86
2019-01-30T20:30:28.939Z,84.92
2019-01-30T20:33:00.993Z,85.16
2019-01-30T20:35:32.973Z,85.16
2019-01-30T20:38:04.919Z,85.29
2019-01-30T20:40:36.835Z,85.30
2019-01-30T20:43:10.987Z,85.52
2019-01-30T20:45:43.087Z,85.50
2019-01-30T20:48:15.138Z,85.54
2019-01-30T20:50:46.988Z,85.70
2019-01-30T20:53:18.847Z,85.50
2019-01-30T20:55:50.701Z,85.67
2019-01-30T20:58:22.523Z,85.73
2019-01-30T21:00:54.387Z,85.82
2019-01-30T21:03:26.269Z,85.81
2019-01-30T21:05:58.129Z,85.77
2019-01-30T21:08:29.935Z,86.20
2019-01-30T21:11:03.163Z,86.38
2019-01-30T21:13:34.981Z,86.30
2019-01-30T21:16:06.816Z,86.40
2019-01-30T21:18:38.607Z,86.53
2019-01-30T21:21:10.535Z,86.61
2019-01-30T21:23:42.462Z,86.76
2019-01-30T21:26:14.408Z,86.40
2019-01-30T21:28:46.529Z,86.16
2019-01-30T21:31:18.307Z,85.94
2019-01-30T21:33:50.205Z,85.99
2019-01-30T21:36:22.042Z,85.77
2019-01-30T21:38:53.837Z,85.61
2019-01-30T21:41:25.932Z,85.56
2019-01-30T21:43:57.703Z,85.57
2019-01-30T21:46:29.541Z,85.62
2019-01-30T21:49:01.351Z,85.55
2019-01-30T21:51:33.246Z,85.56
2019-01-30T21:54:05.048Z,85.57
2019-01-30T21:56:36.975Z,85.36
2019-01-30T21:59:08.864Z,85.27
2019-01-30T22:01:40.783Z,85.05
2019-01-30T22:04:12.744Z,84.72
2019-01-30T22:06:44.547Z,84.66
2019-01-30T22:09:16.341Z,84.64
2019-01-30T22:11:48.243Z,84.73
2019-01-30T22:14:22.847Z,85.01
2019-01-30T22:16:54.666Z,84.87
2019-01-30T22:19:26.456Z,84.74
2019-01-30T22:21:58.342Z,84.70
2019-01-30T22:24:30.218Z,84.84
2019-01-30T22:27:02.062Z,84.86
2019-01-30T22:29:33.974Z,84.75
2019-01-30T22:32:06.122Z,84.36
2019-01-30T22:34:38.078Z,84.25
2019-01-30T22:37:10.045Z,83.93
2019-01-30T22:39:41.854Z,83.70
2019-01-30T22:42:13.614Z,83.79
2019-01-30T22:44:45.451Z,84.10
2019-01-30T22:47:17.246Z,84.30
2019-01-30T22:49:50.269Z,84.60
2019-01-30T22:52:22.192Z,84.79
2019-01-30T22:54:54.034Z,84.85
2019-01-30T22:57:25.801Z,84.91
2019-01-30T22:59:57.632Z,84.92
2019-01-30T23:02:29.587Z,84.75
2019-01-30T23:05:17.756Z,84.74
2019-01-30T23:08:32.262Z,84.63
2019-01-30T23:12:13.041Z,84.04
2019-01-30T23:15:11.918Z,83.85
2019-01-30T23:18:31.397Z,83.38
2019-01-30T23:21:12.833Z,83.09
2019-01-30T23:24:25.470Z,83.15
2019-01-30T23:27:29.030Z,83.36
2019-01-30T23:30:41.316Z,83.59
2019-01-30T23:33:49.277Z,83.82
2019-01-30T23:37:02.316Z,84.10
2019-01-30T23:40:24.755Z,84.05
2019-01-30T23:43:53.573Z,84.05
2019-01-30T23:47:01.885Z,84.10
2019-01-30T23:50:10.699Z,83.73
2019-01-30T23:53:56.734Z,83.39
2019-01-30T23:57:49.357Z,83.18
